sensor_id;sensor_type;location;lat;lon;timestamp;P1;durP1;ratioP1;P2;durP2;ratioP2
58518;SDS011;44310;48.106;12.008;2023-04-03T00:01:03;0.20;;;0.20;;
58518;SDS011;44310;48.106;12.008;2023-04-03T00:03:30;0.30;;;0.30;;
58518;SDS011;44310;48.106;12.008;2023-04-03T00:05:57;0.30;;;0.30;;
58518;SDS011;44310;48.106;12.008;2023-04-03T00:08:25;0.30;;;0.30;;
58518;SDS011;44310;48.106;12.008;2023-04-03T00:10:52;0.57;;;0.57;;
58518;SDS011;44310;48.106;12.008;2023-04-03T00:13:19;0.30;;;0.30;;
58518;SDS011;44310;48.106;12.008;2023-04-03T00:15:46;0.30;;;0.30;;
58518;SDS011;44310;48.106;12.008;2023-04-03T00:18:13;0.30;;;0.30;;
58518;SDS011;44310;48.106;12.008;2023-04-03T00:20:40;0.30;;;0.30;;
58518;SDS011;44310;48.106;12.008;2023-04-03T00:23:08;0.30;;;0.30;;
58518;SDS011;44310;48.106;12.008;2023-04-03T00:25:35;0.30;;;0.30;;
58518;SDS011;44310;48.106;12.008;2023-04-03T00:28:02;0.30;;;0.30;;
58518;SDS011;44310;48.106;12.008;2023-04-03T00:30:30;0.30;;;0.30;;
58518;SDS011;44310;48.106;12.008;2023-04-03T00:32:57;0.30;;;0.30;;
58518;SDS011;44310;48.106;12.008;2023-04-03T00:35:25;0.20;;;0.20;;
58518;SDS011;44310;48.106;12.008;2023-04-03T00:37:54;0.25;;;0.25;;
58518;SDS011;44310;48.106;12.008;2023-04-03T00:40:22;0.30;;;0.30;;
58518;SDS011;44310;48.106;12.008;2023-04-03T00:42:54;0.20;;;0.20;;
58518;SDS011;44310;48.106;12.008;2023-04-03T00:45:28;0.20;;;0.20;;
58518;SDS011;44310;48.106;12.008;2023-04-03T00:47:58;0.20;;;0.20;;
58518;SDS011;44310;48.106;12.008;2023-04-03T00:50:28;0.20;;;0.20;;
58518;SDS011;44310;48.106;12.008;2023-04-03T00:52:56;0.20;;;0.20;;
58518;SDS011;44310;48.106;12.008;2023-04-03T00:55:24;0.20;;;0.20;;
58518;SDS011;44310;48.106;12.008;2023-04-03T00:57:52;0.20;;;0.20;;
58518;SDS011;44310;48.106;12.008;2023-04-03T01:00:21;0.30;;;0.30;;
58518;SDS011;44310;48.106;12.008;2023-04-03T01:02:50;0.30;;;0.30;;
58518;SDS011;44310;48.106;12.008;2023-04-03T01:05:18;0.20;;;0.20;;
58518;SDS011;44310;48.106;12.008;2023-04-03T01:07:47;0.30;;;0.30;;
58518;SDS011;44310;48.106;12.008;2023-04-03T01:10:16;0.30;;;0.30;;
58518;SDS011;44310;48.106;12.008;2023-04-03T01:12:47;0.25;;;0.25;;
58518;SDS011;44310;48.106;12.008;2023-04-03T01:15:18;0.30;;;0.30;;
58518;SDS011;44310;48.106;12.008;2023-04-03T01:17:48;0.20;;;0.20;;
58518;SDS011;44310;48.106;12.008;2023-04-03T01:20:24;0.30;;;0.30;;
58518;SDS011;44310;48.106;12.008;2023-04-03T01:23:00;0.30;;;0.30;;
58518;SDS011;44310;48.106;12.008;2023-04-03T01:25:33;0.30;;;0.30;;
58518;SDS011;44310;48.106;12.008;2023-04-03T01:28:03;0.30;;;0.30;;
58518;SDS011;44310;48.106;12.008;2023-04-03T01:30:33;0.30;;;0.30;;
58518;SDS011;44310;48.106;12.008;2023-04-03T01:33:03;0.30;;;0.30;;
58518;SDS011;44310;48.106;12.008;2023-04-03T01:35:30;0.30;;;0.30;;
58518;SDS011;44310;48.106;12.008;2023-04-03T01:37:57;0.20;;;0.20;;
58518;SDS011;44310;48.106;12.008;2023-04-03T01:40:24;0.30;;;0.30;;
58518;SDS011;44310;48.106;12.008;2023-04-03T01:42:51;0.20;;;0.20;;
58518;SDS011;44310;48.106;12.008;2023-04-03T01:45:19;0.20;;;0.20;;
58518;SDS011;44310;48.106;12.008;2023-04-03T01:47:46;0.20;;;0.20;;
58518;SDS011;44310;48.106;12.008;2023-04-03T01:50:13;0.30;;;0.30;;
58518;SDS011;44310;48.106;12.008;2023-04-03T01:52:40;0.20;;;0.20;;
58518;SDS011;44310;48.106;12.008;2023-04-03T01:55:07;0.30;;;0.30;;
58518;SDS011;44310;48.106;12.008;2023-04-03T01:57:35;0.30;;;0.30;;
58518;SDS011;44310;48.106;12.008;2023-04-03T02:00:02;0.30;;;0.30;;
58518;SDS011;44310;48.106;12.008;2023-04-03T02:02:30;0.22;;;0.22;;
58518;SDS011;44310;48.106;12.008;2023-04-03T02:04:57;0.30;;;0.30;;
58518;SDS011;44310;48.106;12.008;2023-04-03T02:07:24;0.20;;;0.20;;
58518;SDS011;44310;48.106;12.008;2023-04-03T02:09:51;0.30;;;0.30;;
58518;SDS011;44310;48.106;12.008;2023-04-03T02:12:18;0.20;;;0.20;;
58518;SDS011;44310;48.106;12.008;2023-04-03T02:14:46;0.35;;;0.35;;
58518;SDS011;44310;48.106;12.008;2023-04-03T02:17:13;0.20;;;0.20;;
58518;SDS011;44310;48.106;12.008;2023-04-03T02:19:40;0.40;;;0.40;;
58518;SDS011;44310;48.106;12.008;2023-04-03T02:22:07;0.20;;;0.20;;
58518;SDS011;44310;48.106;12.008;2023-04-03T02:24:34;0.30;;;0.30;;
58518;SDS011;44310;48.106;12.008;2023-04-03T02:27:02;0.20;;;0.20;;
58518;SDS011;44310;48.106;12.008;2023-04-03T02:29:29;0.20;;;0.20;;
58518;SDS011;44310;48.106;12.008;2023-04-03T02:31:56;0.30;;;0.30;;
58518;SDS011;44310;48.106;12.008;2023-04-03T02:34:23;0.20;;;0.20;;
58518;SDS011;44310;48.106;12.008;2023-04-03T02:36:50;0.20;;;0.20;;
58518;SDS011;44310;48.106;12.008;2023-04-03T02:39:17;0.20;;;0.20;;
58518;SDS011;44310;48.106;12.008;2023-04-03T02:41:44;0.30;;;0.30;;
58518;SDS011;44310;48.106;12.008;2023-04-03T02:44:12;0.40;;;0.40;;
58518;SDS011;44310;48.106;12.008;2023-04-03T02:46:39;0.33;;;0.33;;
58518;SDS011;44310;48.106;12.008;2023-04-03T02:49:06;0.30;;;0.30;;
58518;SDS011;44310;48.106;12.008;2023-04-03T02:51:33;0.30;;;0.30;;
58518;SDS011;44310;48.106;12.008;2023-04-03T02:54:00;0.28;;;0.28;;
58518;SDS011;44310;48.106;12.008;2023-04-03T02:56:28;0.30;;;0.30;;
58518;SDS011;44310;48.106;12.008;2023-04-03T02:58:55;0.30;;;0.30;;
58518;SDS011;44310;48.106;12.008;2023-04-03T03:01:22;0.30;;;0.30;;
58518;SDS011;44310;48.106;12.008;2023-04-03T03:03:49;0.40;;;0.40;;
58518;SDS011;44310;48.106;12.008;2023-04-03T03:06:16;0.30;;;0.30;;
58518;SDS011;44310;48.106;12.008;2023-04-03T03:08:44;0.30;;;0.30;;
58518;SDS011;44310;48.106;12.008;2023-04-03T03:11:11;0.30;;;0.30;;
58518;SDS011;44310;48.106;12.008;2023-04-03T03:13:39;0.30;;;0.30;;
58518;SDS011;44310;48.106;12.008;2023-04-03T03:16:06;0.30;;;0.30;;
58518;SDS011;44310;48.106;12.008;2023-04-03T03:18:34;0.30;;;0.30;;
58518;SDS011;44310;48.106;12.008;2023-04-03T03:21:02;0.30;;;0.30;;
58518;SDS011;44310;48.106;12.008;2023-04-03T03:23:30;0.20;;;0.20;;
58518;SDS011;44310;48.106;12.008;2023-04-03T03:25:59;0.30;;;0.30;;
58518;SDS011;44310;48.106;12.008;2023-04-03T03:28:28;0.20;;;0.20;;
58518;SDS011;44310;48.106;12.008;2023-04-03T03:30:56;0.20;;;0.20;;
58518;SDS011;44310;48.106;12.008;2023-04-03T03:33:24;0.20;;;0.20;;
58518;SDS011;44310;48.106;12.008;2023-04-03T03:35:52;0.50;;;0.50;;
58518;SDS011;44310;48.106;12.008;2023-04-03T03:38:20;0.20;;;0.20;;
58518;SDS011;44310;48.106;12.008;2023-04-03T03:40:48;0.30;;;0.30;;
58518;SDS011;44310;48.106;12.008;2023-04-03T03:43:16;0.20;;;0.20;;
58518;SDS011;44310;48.106;12.008;2023-04-03T03:45:44;0.25;;;0.25;;
58518;SDS011;44310;48.106;12.008;2023-04-03T03:48:12;0.20;;;0.20;;
58518;SDS011;44310;48.106;12.008;2023-04-03T03:50:39;0.20;;;0.20;;
58518;SDS011;44310;48.106;12.008;2023-04-03T03:53:06;0.20;;;0.20;;
58518;SDS011;44310;48.106;12.008;2023-04-03T03:55:33;0.20;;;0.20;;
58518;SDS011;44310;48.106;12.008;2023-04-03T03:58:00;0.20;;;0.20;;
58518;SDS011;44310;48.106;12.008;2023-04-03T04:00:28;0.20;;;0.20;;
58518;SDS011;44310;48.106;12.008;2023-04-03T04:02:55;0.20;;;0.20;;
58518;SDS011;44310;48.106;12.008;2023-04-03T04:05:24;0.20;;;0.20;;
58518;SDS011;44310;48.106;12.008;2023-04-03T04:07:52;0.20;;;0.20;;
58518;SDS011;44310;48.106;12.008;2023-04-03T04:10:19;0.20;;;0.20;;
58518;SDS011;44310;48.106;12.008;2023-04-03T04:12:46;0.20;;;0.20;;
58518;SDS011;44310;48.106;12.008;2023-04-03T04:15:15;0.20;;;0.20;;
58518;SDS011;44310;48.106;12.008;2023-04-03T04:17:42;0.20;;;0.20;;
58518;SDS011;44310;48.106;12.008;2023-04-03T04:20:10;0.20;;;0.20;;
58518;SDS011;44310;48.106;12.008;2023-04-03T04:22:37;0.30;;;0.30;;
58518;SDS011;44310;48.106;12.008;2023-04-03T04:25:05;0.30;;;0.30;;
58518;SDS011;44310;48.106;12.008;2023-04-03T04:27:33;0.20;;;0.20;;
58518;SDS011;44310;48.106;12.008;2023-04-03T04:30:00;0.30;;;0.30;;
58518;SDS011;44310;48.106;12.008;2023-04-03T04:32:28;0.30;;;0.30;;
58518;SDS011;44310;48.106;12.008;2023-04-03T04:34:55;0.30;;;0.30;;
58518;SDS011;44310;48.106;12.008;2023-04-03T04:37:22;0.20;;;0.20;;
58518;SDS011;44310;48.106;12.008;2023-04-03T04:39:49;0.30;;;0.30;;
58518;SDS011;44310;48.106;12.008;2023-04-03T04:42:16;0.20;;;0.20;;
58518;SDS011;44310;48.106;12.008;2023-04-03T04:44:43;0.40;;;0.40;;
58518;SDS011;44310;48.106;12.008;2023-04-03T04:47:10;0.30;;;0.30;;
58518;SDS011;44310;48.106;12.008;2023-04-03T04:49:37;0.40;;;0.40;;
58518;SDS011;44310;48.106;12.008;2023-04-03T04:52:04;0.30;;;0.30;;
58518;SDS011;44310;48.106;12.008;2023-04-03T04:54:32;0.30;;;0.30;;
58518;SDS011;44310;48.106;12.008;2023-04-03T04:57:00;0.30;;;0.30;;
58518;SDS011;44310;48.106;12.008;2023-04-03T04:59:27;0.30;;;0.30;;
58518;SDS011;44310;48.106;12.008;2023-04-03T05:01:54;0.30;;;0.30;;
58518;SDS011;44310;48.106;12.008;2023-04-03T05:04:21;0.30;;;0.30;;
58518;SDS011;44310;48.106;12.008;2023-04-03T05:06:48;0.40;;;0.40;;
58518;SDS011;44310;48.106;12.008;2023-04-03T05:09:16;0.40;;;0.40;;
58518;SDS011;44310;48.106;12.008;2023-04-03T05:11:43;0.30;;;0.30;;
58518;SDS011;44310;48.106;12.008;2023-04-03T05:14:10;0.30;;;0.30;;
58518;SDS011;44310;48.106;12.008;2023-04-03T05:16:37;0.20;;;0.20;;
58518;SDS011;44310;48.106;12.008;2023-04-03T05:19:04;0.30;;;0.30;;
58518;SDS011;44310;48.106;12.008;2023-04-03T05:21:31;0.30;;;0.30;;
58518;SDS011;44310;48.106;12.008;2023-04-03T05:24:00;0.30;;;0.30;;
58518;SDS011;44310;48.106;12.008;2023-04-03T05:26:29;0.20;;;0.20;;
58518;SDS011;44310;48.106;12.008;2023-04-03T05:28:57;0.25;;;0.25;;
58518;SDS011;44310;48.106;12.008;2023-04-03T05:31:24;0.20;;;0.20;;
58518;SDS011;44310;48.106;12.008;2023-04-03T05:33:52;0.30;;;0.30;;
58518;SDS011;44310;48.106;12.008;2023-04-03T05:36:19;0.30;;;0.30;;
58518;SDS011;44310;48.106;12.008;2023-04-03T05:38:47;0.40;;;0.40;;
58518;SDS011;44310;48.106;12.008;2023-04-03T05:41:14;0.40;;;0.40;;
58518;SDS011;44310;48.106;12.008;2023-04-03T05:43:42;0.40;;;0.40;;
58518;SDS011;44310;48.106;12.008;2023-04-03T05:46:13;0.30;;;0.30;;
58518;SDS011;44310;48.106;12.008;2023-04-03T05:48:45;0.30;;;0.30;;
58518;SDS011;44310;48.106;12.008;2023-04-03T05:51:14;0.30;;;0.30;;
58518;SDS011;44310;48.106;12.008;2023-04-03T05:53:43;0.40;;;0.40;;
58518;SDS011;44310;48.106;12.008;2023-04-03T05:56:12;0.30;;;0.30;;
58518;SDS011;44310;48.106;12.008;2023-04-03T05:58:39;0.50;;;0.50;;
58518;SDS011;44310;48.106;12.008;2023-04-03T06:01:06;0.40;;;0.40;;
58518;SDS011;44310;48.106;12.008;2023-04-03T06:03:34;0.40;;;0.40;;
58518;SDS011;44310;48.106;12.008;2023-04-03T06:06:05;0.30;;;0.30;;
58518;SDS011;44310;48.106;12.008;2023-04-03T06:08:32;0.30;;;0.30;;
58518;SDS011;44310;48.106;12.008;2023-04-03T06:11:00;0.30;;;0.30;;
58518;SDS011;44310;48.106;12.008;2023-04-03T06:13:28;0.23;;;0.23;;
58518;SDS011;44310;48.106;12.008;2023-04-03T06:15:55;0.30;;;0.30;;
58518;SDS011;44310;48.106;12.008;2023-04-03T06:18:23;0.30;;;0.30;;
58518;SDS011;44310;48.106;12.008;2023-04-03T06:20:50;0.20;;;0.20;;
58518;SDS011;44310;48.106;12.008;2023-04-03T06:23:18;0.27;;;0.27;;
58518;SDS011;44310;48.106;12.008;2023-04-03T06:25:45;0.20;;;0.20;;
58518;SDS011;44310;48.106;12.008;2023-04-03T06:28:12;0.30;;;0.30;;
58518;SDS011;44310;48.106;12.008;2023-04-03T06:30:39;0.20;;;0.20;;
58518;SDS011;44310;48.106;12.008;2023-04-03T06:33:07;0.20;;;0.20;;
58518;SDS011;44310;48.106;12.008;2023-04-03T06:35:34;0.25;;;0.25;;
58518;SDS011;44310;48.106;12.008;2023-04-03T06:38:01;0.20;;;0.20;;
58518;SDS011;44310;48.106;12.008;2023-04-03T06:40:31;0.20;;;0.20;;
58518;SDS011;44310;48.106;12.008;2023-04-03T06:42:58;0.20;;;0.20;;
58518;SDS011;44310;48.106;12.008;2023-04-03T06:45:25;0.30;;;0.30;;
58518;SDS011;44310;48.106;12.008;2023-04-03T06:47:53;0.30;;;0.30;;
58518;SDS011;44310;48.106;12.008;2023-04-03T06:50:20;0.20;;;0.20;;
58518;SDS011;44310;48.106;12.008;2023-04-03T06:52:47;0.60;;;0.60;;
58518;SDS011;44310;48.106;12.008;2023-04-03T06:55:14;0.50;;;0.50;;
58518;SDS011;44310;48.106;12.008;2023-04-03T06:57:41;0.40;;;0.40;;
58518;SDS011;44310;48.106;12.008;2023-04-03T07:00:11;0.50;;;0.50;;
58518;SDS011;44310;48.106;12.008;2023-04-03T07:02:39;0.70;;;0.70;;
58518;SDS011;44310;48.106;12.008;2023-04-03T07:05:07;0.60;;;0.60;;
58518;SDS011;44310;48.106;12.008;2023-04-03T07:07:35;0.68;;;0.68;;
58518;SDS011;44310;48.106;12.008;2023-04-03T07:10:05;0.50;;;0.50;;
58518;SDS011;44310;48.106;12.008;2023-04-03T07:12:32;0.57;;;0.57;;
58518;SDS011;44310;48.106;12.008;2023-04-03T07:15:00;0.40;;;0.40;;
58518;SDS011;44310;48.106;12.008;2023-04-03T07:17:27;0.50;;;0.50;;
58518;SDS011;44310;48.106;12.008;2023-04-03T07:19:54;0.33;;;0.33;;
58518;SDS011;44310;48.106;12.008;2023-04-03T07:22:21;0.40;;;0.40;;
58518;SDS011;44310;48.106;12.008;2023-04-03T07:24:49;0.40;;;0.40;;
58518;SDS011;44310;48.106;12.008;2023-04-03T07:27:16;0.50;;;0.50;;
58518;SDS011;44310;48.106;12.008;2023-04-03T07:29:44;0.40;;;0.40;;
58518;SDS011;44310;48.106;12.008;2023-04-03T07:32:11;0.32;;;0.32;;
58518;SDS011;44310;48.106;12.008;2023-04-03T07:34:38;0.40;;;0.40;;
58518;SDS011;44310;48.106;12.008;2023-04-03T07:37:05;0.40;;;0.40;;
58518;SDS011;44310;48.106;12.008;2023-04-03T07:39:33;0.60;;;0.60;;
58518;SDS011;44310;48.106;12.008;2023-04-03T07:42:00;0.30;;;0.30;;
58518;SDS011;44310;48.106;12.008;2023-04-03T07:44:28;0.30;;;0.30;;
58518;SDS011;44310;48.106;12.008;2023-04-03T07:46:55;0.40;;;0.40;;
58518;SDS011;44310;48.106;12.008;2023-04-03T07:49:23;0.30;;;0.30;;
58518;SDS011;44310;48.106;12.008;2023-04-03T07:51:50;0.30;;;0.30;;
58518;SDS011;44310;48.106;12.008;2023-04-03T07:54:18;0.22;;;0.22;;
58518;SDS011;44310;48.106;12.008;2023-04-03T07:56:45;0.30;;;0.30;;
58518;SDS011;44310;48.106;12.008;2023-04-03T07:59:12;0.30;;;0.30;;
58518;SDS011;44310;48.106;12.008;2023-04-03T08:01:39;0.30;;;0.30;;
58518;SDS011;44310;48.106;12.008;2023-04-03T08:04:06;0.30;;;0.30;;
58518;SDS011;44310;48.106;12.008;2023-04-03T08:06:34;0.30;;;0.30;;
58518;SDS011;44310;48.106;12.008;2023-04-03T08:09:12;0.30;;;0.30;;
58518;SDS011;44310;48.106;12.008;2023-04-03T08:11:42;0.20;;;0.20;;
58518;SDS011;44310;48.106;12.008;2023-04-03T08:14:09;0.30;;;0.30;;
58518;SDS011;44310;48.106;12.008;2023-04-03T08:16:45;0.30;;;0.30;;
58518;SDS011;44310;48.106;12.008;2023-04-03T08:19:14;0.40;;;0.40;;
58518;SDS011;44310;48.106;12.008;2023-04-03T08:21:52;0.60;;;0.60;;
58518;SDS011;44310;48.106;12.008;2023-04-03T08:24:21;0.40;;;0.40;;
58518;SDS011;44310;48.106;12.008;2023-04-03T08:26:48;0.20;;;0.20;;
58518;SDS011;44310;48.106;12.008;2023-04-03T08:29:15;0.30;;;0.30;;
58518;SDS011;44310;48.106;12.008;2023-04-03T08:31:42;0.22;;;0.22;;
58518;SDS011;44310;48.106;12.008;2023-04-03T08:34:10;0.50;;;0.50;;
58518;SDS011;44310;48.106;12.008;2023-04-03T08:36:37;0.40;;;0.40;;
58518;SDS011;44310;48.106;12.008;2023-04-03T08:39:05;0.60;;;0.60;;
58518;SDS011;44310;48.106;12.008;2023-04-03T08:41:33;0.60;;;0.60;;
58518;SDS011;44310;48.106;12.008;2023-04-03T08:44:25;0.30;;;0.30;;
58518;SDS011;44310;48.106;12.008;2023-04-03T08:47:00;0.40;;;0.40;;
58518;SDS011;44310;48.106;12.008;2023-04-03T08:49:48;0.40;;;0.40;;
58518;SDS011;44310;48.106;12.008;2023-04-03T08:52:31;0.30;;;0.30;;
58518;SDS011;44310;48.106;12.008;2023-04-03T08:55:07;0.30;;;0.30;;
58518;SDS011;44310;48.106;12.008;2023-04-03T08:57:59;0.40;;;0.40;;
58518;SDS011;44310;48.106;12.008;2023-04-03T09:00:34;0.30;;;0.30;;
58518;SDS011;44310;48.106;12.008;2023-04-03T09:03:13;0.30;;;0.30;;
58518;SDS011;44310;48.106;12.008;2023-04-03T09:05:47;0.20;;;0.20;;
58518;SDS011;44310;48.106;12.008;2023-04-03T09:10:48;0.30;;;0.30;;
58518;SDS011;44310;48.106;12.008;2023-04-03T09:13:21;0.40;;;0.40;;
58518;SDS011;44310;48.106;12.008;2023-04-03T09:15:59;0.30;;;0.30;;
58518;SDS011;44310;48.106;12.008;2023-04-03T09:18:30;0.33;;;0.33;;
58518;SDS011;44310;48.106;12.008;2023-04-03T09:21:07;0.30;;;0.30;;
58518;SDS011;44310;48.106;12.008;2023-04-03T09:23:47;0.30;;;0.30;;
58518;SDS011;44310;48.106;12.008;2023-04-03T09:26:19;0.30;;;0.30;;
58518;SDS011;44310;48.106;12.008;2023-04-03T09:28:56;0.30;;;0.30;;
58518;SDS011;44310;48.106;12.008;2023-04-03T09:31:27;0.40;;;0.40;;
58518;SDS011;44310;48.106;12.008;2023-04-03T09:34:02;0.25;;;0.25;;
58518;SDS011;44310;48.106;12.008;2023-04-03T09:36:40;0.30;;;0.30;;
58518;SDS011;44310;48.106;12.008;2023-04-03T09:39:14;0.20;;;0.20;;
58518;SDS011;44310;48.106;12.008;2023-04-03T09:44:35;0.20;;;0.20;;
58518;SDS011;44310;48.106;12.008;2023-04-03T09:47:18;0.20;;;0.20;;
58518;SDS011;44310;48.106;12.008;2023-04-03T09:49:45;0.20;;;0.20;;
58518;SDS011;44310;48.106;12.008;2023-04-03T09:52:18;0.20;;;0.20;;
58518;SDS011;44310;48.106;12.008;2023-04-03T09:54:48;0.20;;;0.20;;
58518;SDS011;44310;48.106;12.008;2023-04-03T09:57:15;0.20;;;0.20;;
58518;SDS011;44310;48.106;12.008;2023-04-03T09:59:47;0.20;;;0.20;;
58518;SDS011;44310;48.106;12.008;2023-04-03T10:02:32;0.20;;;0.20;;
58518;SDS011;44310;48.106;12.008;2023-04-03T10:08:08;0.20;;;0.20;;
58518;SDS011;44310;48.106;12.008;2023-04-03T10:10:45;0.20;;;0.20;;
58518;SDS011;44310;48.106;12.008;2023-04-03T10:13:15;0.20;;;0.20;;
58518;SDS011;44310;48.106;12.008;2023-04-03T10:15:51;0.20;;;0.20;;
58518;SDS011;44310;48.106;12.008;2023-04-03T10:21:10;0.25;;;0.25;;
58518;SDS011;44310;48.106;12.008;2023-04-03T10:23:54;0.40;;;0.40;;
58518;SDS011;44310;48.106;12.008;2023-04-03T10:29:22;0.20;;;0.20;;
58518;SDS011;44310;48.106;12.008;2023-04-03T10:32:11;0.30;;;0.30;;
58518;SDS011;44310;48.106;12.008;2023-04-03T10:34:50;0.20;;;0.20;;
58518;SDS011;44310;48.106;12.008;2023-04-03T10:40:28;0.30;;;0.30;;
58518;SDS011;44310;48.106;12.008;2023-04-03T10:43:16;0.20;;;0.20;;
58518;SDS011;44310;48.106;12.008;2023-04-03T10:46:10;0.20;;;0.20;;
58518;SDS011;44310;48.106;12.008;2023-04-03T10:48:59;0.20;;;0.20;;
58518;SDS011;44310;48.106;12.008;2023-04-03T10:51:40;0.20;;;0.20;;
58518;SDS011;44310;48.106;12.008;2023-04-03T10:54:11;0.20;;;0.20;;
58518;SDS011;44310;48.106;12.008;2023-04-03T10:56:57;0.28;;;0.20;;
58518;SDS011;44310;48.106;12.008;2023-04-03T10:59:40;0.20;;;0.20;;
58518;SDS011;44310;48.106;12.008;2023-04-03T11:02:13;0.30;;;0.30;;
58518;SDS011;44310;48.106;12.008;2023-04-03T11:04:59;0.20;;;0.20;;
58518;SDS011;44310;48.106;12.008;2023-04-03T11:07:32;0.20;;;0.20;;
58518;SDS011;44310;48.106;12.008;2023-04-03T11:10:28;0.20;;;0.20;;
58518;SDS011;44310;48.106;12.008;2023-04-03T11:13:14;0.20;;;0.20;;
58518;SDS011;44310;48.106;12.008;2023-04-03T11:16:17;0.20;;;0.20;;
58518;SDS011;44310;48.106;12.008;2023-04-03T11:18:56;0.22;;;0.22;;
58518;SDS011;44310;48.106;12.008;2023-04-03T11:21:31;0.20;;;0.20;;
58518;SDS011;44310;48.106;12.008;2023-04-03T11:24:05;0.20;;;0.20;;
58518;SDS011;44310;48.106;12.008;2023-04-03T11:26:56;0.20;;;0.20;;
58518;SDS011;44310;48.106;12.008;2023-04-03T11:29:27;0.20;;;0.20;;
58518;SDS011;44310;48.106;12.008;2023-04-03T11:34:36;0.20;;;0.20;;
58518;SDS011;44310;48.106;12.008;2023-04-03T11:37:14;0.10;;;0.10;;
58518;SDS011;44310;48.106;12.008;2023-04-03T11:39:54;0.30;;;0.30;;
58518;SDS011;44310;48.106;12.008;2023-04-03T11:42:36;0.30;;;0.30;;
58518;SDS011;44310;48.106;12.008;2023-04-03T11:47:57;0.60;;;0.60;;
58518;SDS011;44310;48.106;12.008;2023-04-03T11:50:40;0.50;;;0.50;;
58518;SDS011;44310;48.106;12.008;2023-04-03T11:58:17;0.52;;;0.52;;
58518;SDS011;44310;48.106;12.008;2023-04-03T12:01:02;0.80;;;0.80;;
58518;SDS011;44310;48.106;12.008;2023-04-03T12:03:33;0.50;;;0.50;;
58518;SDS011;44310;48.106;12.008;2023-04-03T12:19:01;0.52;;;0.52;;
58518;SDS011;44310;48.106;12.008;2023-04-03T12:29:29;0.50;;;0.50;;
58518;SDS011;44310;48.106;12.008;2023-04-03T12:34:41;0.68;;;0.68;;
58518;SDS011;44310;48.106;12.008;2023-04-03T12:37:19;0.50;;;0.50;;
58518;SDS011;44310;48.106;12.008;2023-04-03T12:45:38;0.60;;;0.60;;
58518;SDS011;44310;48.106;12.008;2023-04-03T12:48:16;0.50;;;0.50;;
58518;SDS011;44310;48.106;12.008;2023-04-03T12:50:47;0.50;;;0.50;;
58518;SDS011;44310;48.106;12.008;2023-04-03T12:53:36;0.40;;;0.40;;
58518;SDS011;44310;48.106;12.008;2023-04-03T12:58:52;0.40;;;0.40;;
58518;SDS011;44310;48.106;12.008;2023-04-03T13:01:23;0.40;;;0.40;;
58518;SDS011;44310;48.106;12.008;2023-04-03T13:03:52;0.40;;;0.40;;
58518;SDS011;44310;48.106;12.008;2023-04-03T13:06:23;0.47;;;0.47;;
58518;SDS011;44310;48.106;12.008;2023-04-03T13:08:54;0.40;;;0.40;;
58518;SDS011;44310;48.106;12.008;2023-04-03T13:11:25;0.47;;;0.47;;
58518;SDS011;44310;48.106;12.008;2023-04-03T13:14:15;0.40;;;0.40;;
58518;SDS011;44310;48.106;12.008;2023-04-03T13:16:57;0.30;;;0.30;;
58518;SDS011;44310;48.106;12.008;2023-04-03T13:19:27;0.40;;;0.40;;
58518;SDS011;44310;48.106;12.008;2023-04-03T13:21:59;0.30;;;0.30;;
58518;SDS011;44310;48.106;12.008;2023-04-03T13:24:46;0.40;;;0.40;;
58518;SDS011;44310;48.106;12.008;2023-04-03T13:27:17;0.32;;;0.32;;
58518;SDS011;44310;48.106;12.008;2023-04-03T13:29:48;0.40;;;0.40;;
58518;SDS011;44310;48.106;12.008;2023-04-03T13:32:21;0.30;;;0.30;;
58518;SDS011;44310;48.106;12.008;2023-04-03T13:34:51;0.30;;;0.30;;
58518;SDS011;44310;48.106;12.008;2023-04-03T13:40:17;0.30;;;0.30;;
58518;SDS011;44310;48.106;12.008;2023-04-03T13:42:43;0.30;;;0.30;;
58518;SDS011;44310;48.106;12.008;2023-04-03T13:47:47;0.30;;;0.30;;
58518;SDS011;44310;48.106;12.008;2023-04-03T13:50:19;0.30;;;0.30;;
58518;SDS011;44310;48.106;12.008;2023-04-03T13:52:51;0.30;;;0.30;;
58518;SDS011;44310;48.106;12.008;2023-04-03T13:55:26;0.30;;;0.30;;
58518;SDS011;44310;48.106;12.008;2023-04-03T14:03:39;0.40;;;0.40;;
58518;SDS011;44310;48.106;12.008;2023-04-03T14:06:13;0.40;;;0.40;;
58518;SDS011;44310;48.106;12.008;2023-04-03T14:08:42;0.30;;;0.30;;
58518;SDS011;44310;48.106;12.008;2023-04-03T14:11:13;0.30;;;0.30;;
58518;SDS011;44310;48.106;12.008;2023-04-03T14:13:43;0.30;;;0.30;;
58518;SDS011;44310;48.106;12.008;2023-04-03T14:16:12;0.30;;;0.30;;
58518;SDS011;44310;48.106;12.008;2023-04-03T14:18:45;0.20;;;0.20;;
58518;SDS011;44310;48.106;12.008;2023-04-03T14:21:14;0.30;;;0.30;;
58518;SDS011;44310;48.106;12.008;2023-04-03T14:23:43;0.20;;;0.20;;
58518;SDS011;44310;48.106;12.008;2023-04-03T14:26:16;0.20;;;0.20;;
58518;SDS011;44310;48.106;12.008;2023-04-03T14:28:45;0.20;;;0.20;;
58518;SDS011;44310;48.106;12.008;2023-04-03T14:31:14;0.30;;;0.30;;
58518;SDS011;44310;48.106;12.008;2023-04-03T14:33:42;0.20;;;0.20;;
58518;SDS011;44310;48.106;12.008;2023-04-03T14:36:14;0.20;;;0.20;;
58518;SDS011;44310;48.106;12.008;2023-04-03T14:38:44;0.30;;;0.30;;
58518;SDS011;44310;48.106;12.008;2023-04-03T14:41:12;0.30;;;0.30;;
58518;SDS011;44310;48.106;12.008;2023-04-03T14:43:43;0.32;;;0.32;;
58518;SDS011;44310;48.106;12.008;2023-04-03T14:46:12;0.50;;;0.50;;
58518;SDS011;44310;48.106;12.008;2023-04-03T14:48:46;0.40;;;0.40;;
58518;SDS011;44310;48.106;12.008;2023-04-03T14:51:13;0.45;;;0.45;;
58518;SDS011;44310;48.106;12.008;2023-04-03T14:53:42;0.50;;;0.50;;
58518;SDS011;44310;48.106;12.008;2023-04-03T14:56:16;0.50;;;0.50;;
58518;SDS011;44310;48.106;12.008;2023-04-03T14:58:45;0.40;;;0.40;;
58518;SDS011;44310;48.106;12.008;2023-04-03T15:01:16;0.50;;;0.50;;
58518;SDS011;44310;48.106;12.008;2023-04-03T15:03:43;0.40;;;0.40;;
58518;SDS011;44310;48.106;12.008;2023-04-03T15:06:11;0.40;;;0.40;;
58518;SDS011;44310;48.106;12.008;2023-04-03T15:08:40;0.40;;;0.40;;
58518;SDS011;44310;48.106;12.008;2023-04-03T15:11:09;0.40;;;0.40;;
58518;SDS011;44310;48.106;12.008;2023-04-03T15:13:37;0.40;;;0.40;;
58518;SDS011;44310;48.106;12.008;2023-04-03T15:16:06;0.30;;;0.30;;
58518;SDS011;44310;48.106;12.008;2023-04-03T15:18:42;0.40;;;0.40;;
58518;SDS011;44310;48.106;12.008;2023-04-03T15:21:10;0.32;;;0.32;;
58518;SDS011;44310;48.106;12.008;2023-04-03T15:23:37;0.30;;;0.30;;
58518;SDS011;44310;48.106;12.008;2023-04-03T15:26:04;0.30;;;0.30;;
58518;SDS011;44310;48.106;12.008;2023-04-03T15:28:33;0.30;;;0.30;;
58518;SDS011;44310;48.106;12.008;2023-04-03T15:31:06;0.30;;;0.30;;
58518;SDS011;44310;48.106;12.008;2023-04-03T15:33:33;0.40;;;0.40;;
58518;SDS011;44310;48.106;12.008;2023-04-03T15:36:02;0.40;;;0.40;;
58518;SDS011;44310;48.106;12.008;2023-04-03T15:38:37;0.70;;;0.70;;
58518;SDS011;44310;48.106;12.008;2023-04-03T15:41:05;0.55;;;0.55;;
58518;SDS011;44310;48.106;12.008;2023-04-03T15:43:32;0.52;;;0.52;;
58518;SDS011;44310;48.106;12.008;2023-04-03T15:46:00;0.40;;;0.40;;
58518;SDS011;44310;48.106;12.008;2023-04-03T15:48:28;0.40;;;0.40;;
58518;SDS011;44310;48.106;12.008;2023-04-03T15:50:56;0.50;;;0.50;;
58518;SDS011;44310;48.106;12.008;2023-04-03T15:53:24;0.43;;;0.43;;
58518;SDS011;44310;48.106;12.008;2023-04-03T15:55:52;0.52;;;0.52;;
58518;SDS011;44310;48.106;12.008;2023-04-03T15:58:19;0.50;;;0.50;;
58518;SDS011;44310;48.106;12.008;2023-04-03T16:00:46;0.40;;;0.40;;
58518;SDS011;44310;48.106;12.008;2023-04-03T16:03:17;0.40;;;0.40;;